Time;durP1;ratioP1;P1;durP2;ratioP2;P2;SDS_P1;SDS_P2;PMS_P1;PMS_P2;Temp;Humidity;BMP_temperature;BMP_pressure;BME280_temperature;BME280_humidity;BME280_pressure;Samples;Min_cycle;Max_cycle;Signal;HPM_P1;HPM_P2
2020/12/17 00:00:34;;;;;;;5.40;4.87;;;;;;;;;;5091033;28;20176;-61
2020/12/17 00:03:00;;;;;;;7.27;4.80;;;;;;;;;;5097383;28;20167;-59
2020/12/17 00:05:26;;;;;;;7.73;5.03;;;;;;;;;;5107416;28;20203;-59
2020/12/17 00:07:52;;;;;;;6.47;5.50;;;;;;;;;;5090214;28;20193;-61
2020/12/17 00:10:18;;;;;;;6.20;5.23;;;;;;;;;;5091434;28;20647;-60
2020/12/17 00:12:45;;;;;;;5.13;4.60;;;;;;;;;;5093499;28;20183;-60
2020/12/17 00:15:12;;;;;;;5.60;5.10;;;;;;;;;;5092382;28;20195;-59
2020/12/17 00:17:45;;;;;;;5.93;5.03;;;;;;;;;;5093461;28;20185;-61
2020/12/17 00:20:12;;;;;;;5.30;4.70;;;;;;;;;;5074102;28;20253;-58
2020/12/17 00:22:39;;;;;;;5.97;4.47;;;;;;;;;;5093463;28;20179;-62
2020/12/17 00:25:06;;;;;;;4.87;4.20;;;;;;;;;;5090446;28;20172;-59
2020/12/17 00:27:32;;;;;;;6.27;5.07;;;;;;;;;;5107571;28;20171;-61
2020/12/17 00:29:58;;;;;;;7.20;4.63;;;;;;;;;;5091080;28;20192;-61
2020/12/17 00:32:24;;;;;;;5.33;4.20;;;;;;;;;;5092577;28;20179;-60
2020/12/17 00:34:50;;;;;;;5.47;4.97;;;;;;;;;;5110281;28;20187;-60
2020/12/17 00:37:16;;;;;;;7.03;4.67;;;;;;;;;;5099200;28;20180;-60
2020/12/17 00:39:42;;;;;;;6.03;4.60;;;;;;;;;;5108265;28;20210;-59
2020/12/17 00:42:09;;;;;;;5.77;4.77;;;;;;;;;;5094039;28;20210;-60
2020/12/17 00:44:35;;;;;;;5.70;4.30;;;;;;;;;;5074799;28;20184;-60
2020/12/17 00:47:01;;;;;;;6.17;4.47;;;;;;;;;;5090244;28;20179;-60
2020/12/17 00:49:27;;;;;;;5.73;4.40;;;;;;;;;;5095785;28;20514;-60
2020/12/17 00:52:00;;;;;;;4.43;4.03;;;;;;;;;;5090106;28;20191;-61
2020/12/17 00:54:27;;;;;;;6.00;4.47;;;;;;;;;;5092836;28;20258;-59
2020/12/17 00:56:53;;;;;;;6.37;4.83;;;;;;;;;;5115778;28;20183;-61
2020/12/17 00:59:19;;;;;;;4.87;4.37;;;;;;;;;;5093127;28;20199;-60
2020/12/17 01:01:45;;;;;;;4.27;3.87;;;;;;;;;;5099541;28;20172;-60
2020/12/17 01:04:11;;;;;;;5.13;4.63;;;;;;;;;;5078509;28;20724;-60
2020/12/17 01:06:37;;;;;;;6.73;4.90;;;;;;;;;;5078593;28;20263;-60
2020/12/17 01:09:04;;;;;;;6.47;5.13;;;;;;;;;;5097434;28;20191;-62
2020/12/17 01:11:31;;;;;;;7.13;4.50;;;;;;;;;;5095271;28;20210;-60
2020/12/17 01:13:57;;;;;;;6.17;4.43;;;;;;;;;;5099242;28;20657;-59
2020/12/17 01:16:23;;;;;;;7.00;4.97;;;;;;;;;;5095546;28;20537;-60
2020/12/17 01:18:49;;;;;;;4.30;3.97;;;;;;;;;;5097192;28;20731;-60
2020/12/17 01:21:15;;;;;;;5.57;4.20;;;;;;;;;;5080282;28;20232;-60
2020/12/17 01:23:42;;;;;;;7.13;4.30;;;;;;;;;;5082629;28;20183;-60
2020/12/17 01:26:08;;;;;;;5.80;4.40;;;;;;;;;;5105128;27;20174;-60
2020/12/17 01:28:34;;;;;;;4.77;4.27;;;;;;;;;;5117858;27;20236;-60
2020/12/17 01:31:04;;;;;;;5.77;4.17;;;;;;;;;;5099383;28;20199;-60
2020/12/17 01:33:30;;;;;;;4.70;4.13;;;;;;;;;;5112032;28;20712;-60
2020/12/17 01:35:56;;;;;;;5.13;4.23;;;;;;;;;;5113617;28;20179;-60
2020/12/17 01:38:22;;;;;;;4.87;4.40;;;;;;;;;;5107297;28;20238;-60
2020/12/17 01:40:48;;;;;;;6.10;4.60;;;;;;;;;;5096333;28;20967;-59
2020/12/17 01:43:14;;;;;;;3.50;3.20;;;;;;;;;;5094066;28;20222;-60
2020/12/17 01:45:40;;;;;;;5.13;4.33;;;;;;;;;;5075425;28;20266;-59
2020/12/17 01:48:07;;;;;;;4.43;4.03;;;;;;;;;;5081141;28;20266;-60
2020/12/17 01:50:33;;;;;;;4.90;4.00;;;;;;;;;;5087984;28;20224;-61
2020/12/17 01:52:59;;;;;;;6.03;4.00;;;;;;;;;;5105597;28;20232;-60
2020/12/17 01:55:26;;;;;;;7.33;4.47;;;;;;;;;;5093618;28;20172;-60
2020/12/17 01:57:54;;;;;;;5.83;4.60;;;;;;;;;;5076526;28;20839;-59
2020/12/17 02:00:22;;;;;;;4.70;4.27;;;;;;;;;;5093517;28;20180;-60
2020/12/17 02:02:48;;;;;;;4.80;4.00;;;;;;;;;;5110883;28;20175;-59
2020/12/17 02:05:14;;;;;;;8.30;4.00;;;;;;;;;;5089694;28;20253;-62
2020/12/17 02:07:43;;;;;;;8.30;4.67;;;;;;;;;;5096896;28;20254;-60
2020/12/17 02:10:10;;;;;;;6.27;3.77;;;;;;;;;;5101313;28;20222;-59
2020/12/17 02:13:02;;;;;;;6.00;4.40;;;;;;;;;;5098771;28;20183;-60
2020/12/17 02:15:28;;;;;;;4.23;3.43;;;;;;;;;;5093482;28;20187;-60
2020/12/17 02:17:54;;;;;;;4.57;4.10;;;;;;;;;;5098311;28;20933;-60
2020/12/17 02:20:20;;;;;;;4.50;4.00;;;;;;;;;;5101736;28;20172;-60
2020/12/17 02:22:47;;;;;;;4.63;4.07;;;;;;;;;;5088042;28;20535;-59
2020/12/17 02:25:14;;;;;;;4.07;3.73;;;;;;;;;;5092989;28;20176;-59
2020/12/17 02:27:41;;;;;;;4.87;4.30;;;;;;;;;;5103399;27;20491;-59
2020/12/17 02:30:08;;;;;;;4.10;3.60;;;;;;;;;;5086884;28;20270;-59
2020/12/17 02:32:34;;;;;;;4.90;3.70;;;;;;;;;;5102671;28;20190;-60
2020/12/17 02:35:00;;;;;;;5.00;4.23;;;;;;;;;;5092166;28;20176;-59
2020/12/17 02:37:26;;;;;;;4.67;3.67;;;;;;;;;;5093977;28;20180;-59
2020/12/17 02:39:52;;;;;;;5.13;3.83;;;;;;;;;;5109658;28;20600;-58
2020/12/17 02:42:19;;;;;;;5.37;3.80;;;;;;;;;;5100457;28;20210;-58
2020/12/17 02:44:45;;;;;;;5.00;4.00;;;;;;;;;;5092034;28;20568;-60
2020/12/17 02:47:11;;;;;;;3.93;3.53;;;;;;;;;;5098490;28;20168;-59
2020/12/17 02:49:37;;;;;;;5.40;3.87;;;;;;;;;;5093683;28;20180;-60
2020/12/17 02:52:03;;;;;;;6.43;3.73;;;;;;;;;;5105560;28;20644;-60
2020/12/17 02:54:29;;;;;;;4.47;4.03;;;;;;;;;;5106596;28;20179;-59
2020/12/17 02:56:55;;;;;;;5.57;3.80;;;;;;;;;;5126457;27;20209;-60
2020/12/17 02:59:21;;;;;;;4.63;3.77;;;;;;;;;;5092500;27;20203;-60
2020/12/17 03:01:48;;;;;;;10.27;4.17;;;;;;;;;;5098133;28;20218;-59
2020/12/17 03:04:14;;;;;;;7.00;4.10;;;;;;;;;;5107768;28;20248;-60
2020/12/17 03:06:40;;;;;;;5.77;3.77;;;;;;;;;;5104346;28;20266;-62
2020/12/17 03:09:06;;;;;;;4.23;3.80;;;;;;;;;;5095380;28;20221;-59
2020/12/17 03:11:32;;;;;;;4.00;3.60;;;;;;;;;;5104256;28;20644;-60
2020/12/17 03:13:58;;;;;;;4.63;3.57;;;;;;;;;;5110926;27;20206;-58
2020/12/17 03:16:25;;;;;;;4.93;4.10;;;;;;;;;;5104293;28;21052;-61
2020/12/17 03:18:51;;;;;;;3.73;3.33;;;;;;;;;;5105616;28;20723;-60
2020/12/17 03:21:17;;;;;;;4.90;4.07;;;;;;;;;;5091783;28;20520;-59
2020/12/17 03:23:43;;;;;;;4.40;3.50;;;;;;;;;;5096151;28;20187;-60
2020/12/17 03:26:09;;;;;;;4.33;3.53;;;;;;;;;;5112608;27;20185;-59
2020/12/17 03:28:35;;;;;;;3.73;3.40;;;;;;;;;;5092552;28;20187;-60
2020/12/17 03:31:01;;;;;;;4.40;4.00;;;;;;;;;;5086063;28;20281;-59
2020/12/17 03:33:27;;;;;;;5.40;3.50;;;;;;;;;;5102050;28;20739;-59
2020/12/17 03:35:53;;;;;;;5.03;3.60;;;;;;;;;;5091262;28;20187;-60
2020/12/17 03:38:19;;;;;;;3.53;3.17;;;;;;;;;;5099649;28;20195;-59
2020/12/17 03:40:45;;;;;;;4.57;3.53;;;;;;;;;;5092429;28;20199;-59
2020/12/17 03:43:12;;;;;;;5.40;3.60;;;;;;;;;;5116216;27;20564;-59
2020/12/17 03:45:38;;;;;;;4.60;3.83;;;;;;;;;;5092506;27;20180;-59
2020/12/17 03:48:04;;;;;;;4.77;3.37;;;;;;;;;;5097408;28;20241;-59
2020/12/17 03:50:30;;;;;;;4.03;3.67;;;;;;;;;;5080370;28;20262;-59
2020/12/17 03:52:55;;;;;;;3.83;3.50;;;;;;;;;;5076194;28;20179;-59
2020/12/17 03:55:22;;;;;;;3.93;3.60;;;;;;;;;;5105794;28;20752;-59
2020/12/17 03:57:48;;;;;;;4.03;3.63;;;;;;;;;;5112066;27;20183;-59
2020/12/17 04:00:14;;;;;;;3.67;3.00;;;;;;;;;;5101742;28;20273;-60
2020/12/17 04:02:40;;;;;;;4.43;3.53;;;;;;;;;;5108185;28;20276;-59
2020/12/17 04:05:06;;;;;;;4.00;3.60;;;;;;;;;;5085741;28;20705;-61
2020/12/17 04:07:32;;;;;;;4.47;3.73;;;;;;;;;;5093435;28;20244;-59
2020/12/17 04:09:58;;;;;;;4.60;3.70;;;;;;;;;;5106298;28;20649;-61
2020/12/17 04:12:24;;;;;;;4.43;3.87;;;;;;;;;;5103614;28;20182;-61
2020/12/17 04:14:50;;;;;;;5.17;3.67;;;;;;;;;;5098553;28;20676;-59
2020/12/17 04:17:16;;;;;;;4.30;3.57;;;;;;;;;;5093867;28;20179;-61
2020/12/17 04:19:42;;;;;;;4.13;3.73;;;;;;;;;;5101231;28;20238;-59
2020/12/17 04:22:08;;;;;;;4.07;3.30;;;;;;;;;;5082009;28;20263;-59
2020/12/17 04:24:34;;;;;;;5.20;4.13;;;;;;;;;;5108922;28;20171;-59
2020/12/17 04:27:00;;;;;;;4.00;3.47;;;;;;;;;;5128790;28;20183;-58
2020/12/17 04:29:26;;;;;;;4.73;3.93;;;;;;;;;;5092063;28;20646;-59
2020/12/17 04:31:52;;;;;;;5.87;4.17;;;;;;;;;;5099421;28;20694;-60
2020/12/17 04:34:19;;;;;;;3.97;3.57;;;;;;;;;;5105556;28;20205;-60
2020/12/17 04:36:45;;;;;;;6.33;3.60;;;;;;;;;;5080105;28;20690;-60
2020/12/17 04:39:11;;;;;;;5.00;3.60;;;;;;;;;;5092653;28;20282;-61
2020/12/17 04:41:38;;;;;;;5.23;3.73;;;;;;;;;;5099037;28;20176;-59
2020/12/17 04:44:04;;;;;;;4.33;3.83;;;;;;;;;;5106757;28;20171;-59
2020/12/17 04:46:31;;;;;;;4.87;4.10;;;;;;;;;;5100908;28;20257;-59
2020/12/17 04:48:59;;;;;;;5.20;3.60;;;;;;;;;;5112073;28;20187;-59
2020/12/17 04:51:25;;;;;;;6.67;3.90;;;;;;;;;;5107997;28;20179;-60
2020/12/17 04:53:51;;;;;;;3.90;3.50;;;;;;;;;;5093865;28;20180;-60
2020/12/17 04:56:19;;;;;;;6.70;3.53;;;;;;;;;;5125620;27;20671;-60
2020/12/17 04:58:49;;;;;;;5.60;3.93;;;;;;;;;;5124031;27;20246;-60
2020/12/17 05:01:15;;;;;;;6.03;3.90;;;;;;;;;;5093784;28;20267;-59
2020/12/17 05:03:45;;;;;;;4.53;3.60;;;;;;;;;;5094927;28;20610;-58
2020/12/17 05:06:12;;;;;;;4.60;3.67;;;;;;;;;;5113670;28;20175;-61
2020/12/17 05:08:38;;;;;;;6.53;3.97;;;;;;;;;;5107797;28;20207;-60
2020/12/17 05:11:04;;;;;;;5.07;3.50;;;;;;;;;;5093205;28;20172;-60
2020/12/17 05:13:30;;;;;;;5.43;4.23;;;;;;;;;;5107118;28;20687;-59
2020/12/17 05:15:57;;;;;;;4.47;4.07;;;;;;;;;;5109814;27;20198;-61
2020/12/17 05:18:23;;;;;;;5.03;4.03;;;;;;;;;;5103017;27;20219;-60
2020/12/17 05:20:50;;;;;;;4.80;3.93;;;;;;;;;;5101788;28;20187;-59
2020/12/17 05:23:16;;;;;;;4.90;4.03;;;;;;;;;;5093598;28;20178;-60
2020/12/17 05:25:42;;;;;;;4.97;4.20;;;;;;;;;;5100762;27;20176;-58
2020/12/17 05:28:08;;;;;;;4.37;3.90;;;;;;;;;;5082432;28;20657;-60
2020/12/17 05:30:35;;;;;;;4.00;3.50;;;;;;;;;;5110782;28;20679;-60
2020/12/17 05:33:02;;;;;;;4.50;4.10;;;;;;;;;;5112141;28;20212;-60
2020/12/17 05:35:32;;;;;;;4.07;3.67;;;;;;;;;;5104327;28;20314;-60
2020/12/17 05:38:06;;;;;;;5.73;3.70;;;;;;;;;;5099828;28;20179;-60
2020/12/17 05:40:39;;;;;;;5.20;3.77;;;;;;;;;;5096026;27;20638;-60
2020/12/17 05:43:05;;;;;;;4.20;3.80;;;;;;;;;;5098340;28;20183;-60
2020/12/17 05:45:32;;;;;;;4.20;3.80;;;;;;;;;;5095505;28;20222;-61
2020/12/17 05:48:08;;;;;;;6.00;3.80;;;;;;;;;;5105910;27;20383;-60
2020/12/17 05:50:34;;;;;;;5.63;4.17;;;;;;;;;;5095947;28;20244;-60
2020/12/17 05:53:03;;;;;;;5.03;4.17;;;;;;;;;;5092589;28;20614;-60
2020/12/17 05:55:32;;;;;;;4.63;4.23;;;;;;;;;;5093122;28;20305;-60
2020/12/17 05:57:58;;;;;;;5.47;3.90;;;;;;;;;;5096025;28;20262;-60
2020/12/17 06:00:24;;;;;;;4.07;3.73;;;;;;;;;;5099721;28;20167;-59
2020/12/17 06:02:50;;;;;;;7.80;4.20;;;;;;;;;;5102285;28;20179;-59
2020/12/17 06:05:17;;;;;;;4.47;4.00;;;;;;;;;;5110290;27;20235;-58
2020/12/17 06:07:48;;;;;;;4.67;4.27;;;;;;;;;;5112441;28;20175;-59
2020/12/17 06:10:18;;;;;;;4.53;3.67;;;;;;;;;;5111500;28;20166;-60
2020/12/17 06:12:45;;;;;;;5.07;4.43;;;;;;;;;;5112676;28;20233;-58
2020/12/17 06:15:14;;;;;;;7.17;3.27;;;;;;;;;;5093970;28;20530;-58
2020/12/17 06:17:42;;;;;;;6.23;4.20;;;;;;;;;;5090054;28;20183;-59
2020/12/17 06:20:08;;;;;;;6.67;4.57;;;;;;;;;;5108903;27;20538;-59
2020/12/17 06:22:34;;;;;;;7.00;4.10;;;;;;;;;;5107944;28;20167;-58
2020/12/17 06:25:01;;;;;;;5.50;4.53;;;;;;;;;;5111497;28;20199;-59
2020/12/17 06:27:29;;;;;;;5.43;4.43;;;;;;;;;;5101430;28;20172;-59
2020/12/17 06:30:02;;;;;;;5.13;4.33;;;;;;;;;;5091704;28;20175;-60
2020/12/17 06:32:29;;;;;;;5.07;4.53;;;;;;;;;;5091794;28;20160;-59
2020/12/17 06:34:58;;;;;;;4.90;4.37;;;;;;;;;;5109907;27;20183;-58
2020/12/17 06:37:24;;;;;;;5.73;4.70;;;;;;;;;;5111418;27;20210;-59
2020/12/17 06:39:50;;;;;;;6.60;4.73;;;;;;;;;;5091819;28;20210;-59
2020/12/17 06:42:52;;;;;;;5.10;4.30;;;;;;;;;;5091806;28;20614;-59
2020/12/17 06:45:24;;;;;;;6.57;4.40;;;;;;;;;;5009054;28;20189;-59
2020/12/17 06:47:50;;;;;;;4.53;4.13;;;;;;;;;;5093530;28;20187;-58
2020/12/17 06:50:20;;;;;;;4.63;4.23;;;;;;;;;;5111015;28;20175;-59
2020/12/17 06:53:03;;;;;;;6.20;4.70;;;;;;;;;;5109785;28;20229;-59
2020/12/17 06:55:52;;;;;;;5.27;4.43;;;;;;;;;;5111505;28;20163;-59
2020/12/17 06:58:19;;;;;;;4.50;4.10;;;;;;;;;;5096242;28;20234;-58
2020/12/17 07:00:46;;;;;;;5.23;4.50;;;;;;;;;;5110731;28;20412;-58
2020/12/17 07:03:12;;;;;;;6.07;3.90;;;;;;;;;;5110850;28;20237;-58
2020/12/17 07:05:39;;;;;;;20.40;4.63;;;;;;;;;;5119722;27;20719;-59
2020/12/17 07:08:05;;;;;;;4.70;4.10;;;;;;;;;;5108869;28;20171;-58
2020/12/17 07:10:32;;;;;;;4.40;4.00;;;;;;;;;;5099274;28;20233;-58
2020/12/17 07:12:58;;;;;;;6.70;4.67;;;;;;;;;;5099378;28;20180;-60
2020/12/17 07:15:31;;;;;;;5.40;3.80;;;;;;;;;;5084142;28;20183;-58
2020/12/17 07:18:16;;;;;;;6.43;4.63;;;;;;;;;;5092980;28;20351;-59
2020/12/17 07:20:44;;;;;;;7.97;5.47;;;;;;;;;;5093488;28;20175;-61
2020/12/17 07:23:10;;;;;;;5.87;4.47;;;;;;;;;;5106711;28;20178;-59
2020/12/17 07:25:39;;;;;;;5.23;4.67;;;;;;;;;;5108176;28;20203;-60
2020/12/17 07:28:05;;;;;;;5.10;4.10;;;;;;;;;;5112160;28;20486;-58
2020/12/17 07:30:31;;;;;;;4.57;4.10;;;;;;;;;;5100356;28;20199;-59
2020/12/17 07:32:58;;;;;;;6.60;4.33;;;;;;;;;;5111319;28;20179;-61
2020/12/17 07:35:26;;;;;;;6.10;4.20;;;;;;;;;;5111369;28;20210;-59
2020/12/17 07:37:52;;;;;;;5.90;3.93;;;;;;;;;;5092465;28;20668;-58
2020/12/17 07:40:21;;;;;;;10.23;4.60;;;;;;;;;;5110585;28;20186;-59
2020/12/17 07:42:59;;;;;;;5.97;3.67;;;;;;;;;;5092162;28;20254;-60
2020/12/17 07:45:38;;;;;;;7.93;4.60;;;;;;;;;;5107542;28;20181;-59
2020/12/17 07:48:24;;;;;;;5.43;3.87;;;;;;;;;;5110382;28;20179;-58
2020/12/17 07:50:50;;;;;;;6.20;3.70;;;;;;;;;;5110704;28;20178;-57
2020/12/17 07:53:26;;;;;;;5.13;4.13;;;;;;;;;;5109147;28;20183;-60
2020/12/17 07:55:52;;;;;;;5.93;3.57;;;;;;;;;;5110956;28;20536;-59
2020/12/17 07:58:18;;;;;;;5.90;3.70;;;;;;;;;;5109914;28;20213;-59
2020/12/17 08:00:44;;;;;;;7.43;4.00;;;;;;;;;;5110787;28;20185;-59
2020/12/17 08:03:10;;;;;;;5.40;3.77;;;;;;;;;;5131475;27;20166;-58
2020/12/17 08:05:37;;;;;;;4.57;3.53;;;;;;;;;;5126606;27;20264;-59
2020/12/17 08:08:03;;;;;;;5.30;3.53;;;;;;;;;;5099150;28;20513;-60
2020/12/17 08:10:29;;;;;;;4.50;4.00;;;;;;;;;;5110289;28;20183;-60
2020/12/17 08:12:58;;;;;;;3.90;3.40;;;;;;;;;;5110371;28;20167;-58
2020/12/17 08:15:24;;;;;;;5.20;3.40;;;;;;;;;;5079363;28;20176;-60
2020/12/17 08:17:56;;;;;;;4.23;3.40;;;;;;;;;;5093898;28;20635;-58
2020/12/17 08:20:22;;;;;;;3.90;3.10;;;;;;;;;;5094757;28;20222;-59
2020/12/17 08:22:48;;;;;;;3.77;3.10;;;;;;;;;;5110455;28;20187;-58
2020/12/17 08:25:18;;;;;;;4.50;3.50;;;;;;;;;;5079929;28;20171;-58
2020/12/17 08:27:45;;;;;;;4.00;3.13;;;;;;;;;;5114609;28;20175;-59
2020/12/17 08:30:11;;;;;;;4.53;3.17;;;;;;;;;;5123330;27;20205;-59
2020/12/17 08:32:38;;;;;;;3.70;3.40;;;;;;;;;;5112749;28;20530;-59
2020/12/17 08:35:04;;;;;;;3.40;3.10;;;;;;;;;;5094890;28;20179;-59
2020/12/17 08:37:30;;;;;;;3.40;3.10;;;;;;;;;;5100643;28;20183;-59
2020/12/17 08:39:57;;;;;;;2.73;2.50;;;;;;;;;;5101231;28;20215;-58
2020/12/17 08:42:25;;;;;;;2.97;2.60;;;;;;;;;;5110927;28;20514;-62
2020/12/17 08:44:52;;;;;;;3.13;2.80;;;;;;;;;;5113517;28;20604;-58
2020/12/17 08:47:19;;;;;;;3.00;2.63;;;;;;;;;;5113945;28;20194;-59
2020/12/17 08:49:46;;;;;;;4.60;2.90;;;;;;;;;;5114853;28;20206;-59
2020/12/17 08:52:24;;;;;;;3.83;2.73;;;;;;;;;;5114782;28;20301;-59
2020/12/17 08:55:00;;;;;;;2.90;2.57;;;;;;;;;;5081309;28;20262;-59
2020/12/17 08:57:26;;;;;;;3.23;2.53;;;;;;;;;;5075675;28;20171;-58
2020/12/17 08:59:52;;;;;;;3.73;2.80;;;;;;;;;;5121690;27;20738;-59
2020/12/17 09:02:28;;;;;;;2.50;2.30;;;;;;;;;;5135072;27;20285;-58
2020/12/17 09:04:58;;;;;;;2.70;2.30;;;;;;;;;;5112818;27;20325;-59
2020/12/17 09:07:25;;;;;;;2.73;2.53;;;;;;;;;;5111723;28;20653;-57
2020/12/17 09:09:51;;;;;;;3.20;2.90;;;;;;;;;;5113552;28;20183;-61
2020/12/17 09:12:27;;;;;;;2.77;2.37;;;;;;;;;;5114284;27;20183;-60
2020/12/17 09:14:53;;;;;;;3.87;2.77;;;;;;;;;;5112757;28;20175;-59
2020/12/17 09:17:19;;;;;;;4.20;2.40;;;;;;;;;;5113251;28;20186;-60
2020/12/17 09:19:46;;;;;;;3.13;2.53;;;;;;;;;;5112987;28;20252;-59
2020/12/17 09:22:13;;;;;;;4.83;2.13;;;;;;;;;;5112683;28;20217;-61
2020/12/17 09:24:41;;;;;;;4.10;2.53;;;;;;;;;;5113815;28;20220;-60
2020/12/17 09:27:16;;;;;;;6.93;2.47;;;;;;;;;;5113582;28;20171;-61
2020/12/17 09:29:42;;;;;;;24.70;3.93;;;;;;;;;;5126955;27;20273;-59
2020/12/17 09:32:23;;;;;;;26.77;3.90;;;;;;;;;;5116502;27;20199;-58
2020/12/17 09:34:49;;;;;;;18.03;3.10;;;;;;;;;;5113710;28;20167;-58
2020/12/17 09:37:15;;;;;;;14.83;2.97;;;;;;;;;;5113521;28;20699;-58
2020/12/17 09:39:42;;;;;;;5.37;2.63;;;;;;;;;;5113134;28;20286;-58
2020/12/17 09:42:08;;;;;;;13.33;3.23;;;;;;;;;;5113181;28;20176;-58
2020/12/17 09:44:35;;;;;;;5.00;2.60;;;;;;;;;;5113290;28;20163;-58
2020/12/17 09:47:02;;;;;;;12.00;3.70;;;;;;;;;;5112948;28;20257;-58
2020/12/17 09:49:32;;;;;;;3.97;2.70;;;;;;;;;;5112797;28;20172;-58
2020/12/17 09:52:05;;;;;;;3.50;2.43;;;;;;;;;;5113057;28;20179;-58
2020/12/17 09:54:31;;;;;;;6.37;2.70;;;;;;;;;;5112696;28;20199;-58
2020/12/17 09:57:04;;;;;;;7.80;2.10;;;;;;;;;;5112357;28;20182;-58
2020/12/17 09:59:30;;;;;;;3.20;1.97;;;;;;;;;;5117445;27;20203;-58
2020/12/17 10:01:57;;;;;;;3.33;1.87;;;;;;;;;;5111378;28;20660;-59
2020/12/17 10:04:23;;;;;;;2.23;2.00;;;;;;;;;;5111253;27;20218;-58
2020/12/17 10:06:49;;;;;;;6.00;2.20;;;;;;;;;;5083869;28;20523;-58
2020/12/17 10:09:15;;;;;;;2.30;1.43;;;;;;;;;;5073147;28;20230;-58
2020/12/17 10:11:49;;;;;;;2.43;1.93;;;;;;;;;;5072069;28;20580;-58
2020/12/17 10:14:15;;;;;;;2.23;1.47;;;;;;;;;;5058567;28;20173;-57
2020/12/17 10:16:41;;;;;;;7.70;2.20;;;;;;;;;;5085566;28;20647;-58
2020/12/17 10:19:07;;;;;;;2.73;1.97;;;;;;;;;;5075457;28;20192;-59
2020/12/17 10:21:33;;;;;;;2.00;1.40;;;;;;;;;;5071978;28;20172;-60
2020/12/17 10:23:59;;;;;;;5.23;1.50;;;;;;;;;;5071871;28;20165;-60
2020/12/17 10:26:25;;;;;;;2.03;1.70;;;;;;;;;;5071562;28;20187;-59
2020/12/17 10:28:51;;;;;;;2.97;1.90;;;;;;;;;;5054421;28;20196;-60
2020/12/17 10:31:18;;;;;;;1.80;1.70;;;;;;;;;;5071583;28;20207;-61
2020/12/17 10:33:44;;;;;;;1.50;1.40;;;;;;;;;;5071363;28;20184;-59
2020/12/17 10:36:10;;;;;;;1.63;1.53;;;;;;;;;;5071370;28;20164;-61
2020/12/17 10:38:36;;;;;;;2.33;1.60;;;;;;;;;;5071624;28;20211;-60
2020/12/17 10:41:02;;;;;;;2.30;1.57;;;;;;;;;;5074891;28;20192;-59
2020/12/17 10:43:28;;;;;;;4.10;2.20;;;;;;;;;;5075573;28;20208;-60
2020/12/17 10:45:54;;;;;;;2.17;1.67;;;;;;;;;;5059002;28;20234;-60
2020/12/17 10:48:20;;;;;;;2.40;1.60;;;;;;;;;;5075199;28;20181;-60
2020/12/17 10:50:48;;;;;;;1.50;1.40;;;;;;;;;;5080142;28;20184;-60
2020/12/17 10:53:14;;;;;;;3.20;1.67;;;;;;;;;;5085503;28;20200;-60
2020/12/17 10:55:40;;;;;;;2.43;1.30;;;;;;;;;;5077926;28;20606;-60
2020/12/17 10:58:07;;;;;;;1.97;1.53;;;;;;;;;;5074012;28;20181;-60
2020/12/17 11:00:33;;;;;;;2.20;1.77;;;;;;;;;;5067859;28;20234;-60
2020/12/17 11:02:59;;;;;;;1.83;1.73;;;;;;;;;;5075266;28;20533;-59
2020/12/17 11:05:27;;;;;;;2.40;1.67;;;;;;;;;;5105670;28;20495;-59
2020/12/17 11:07:53;;;;;;;2.50;1.30;;;;;;;;;;5111257;28;20216;-60
2020/12/17 11:10:19;;;;;;;1.77;1.30;;;;;;;;;;5110396;28;20576;-60
2020/12/17 11:12:45;;;;;;;1.87;1.70;;;;;;;;;;5109576;28;20187;-60
2020/12/17 11:15:11;;;;;;;1.63;1.50;;;;;;;;;;5111186;28;20171;-60
2020/12/17 11:17:37;;;;;;;6.03;1.63;;;;;;;;;;5106884;28;20293;-59
2020/12/17 11:20:03;;;;;;;2.17;1.50;;;;;;;;;;5109938;28;20267;-61
2020/12/17 11:22:30;;;;;;;1.70;1.43;;;;;;;;;;5110954;28;20167;-60
2020/12/17 11:24:56;;;;;;;1.87;1.47;;;;;;;;;;5110333;28;20167;-60
2020/12/17 11:27:22;;;;;;;1.57;1.47;;;;;;;;;;5110716;28;20220;-61
2020/12/17 11:29:48;;;;;;;2.80;1.40;;;;;;;;;;5131139;27;20644;-61
2020/12/17 11:32:14;;;;;;;2.17;1.50;;;;;;;;;;5099021;28;20229;-60
2020/12/17 11:34:40;;;;;;;1.70;1.60;;;;;;;;;;5110010;28;20211;-59
2020/12/17 11:37:13;;;;;;;3.63;1.97;;;;;;;;;;5116524;27;20225;-60
2020/12/17 11:39:39;;;;;;;2.20;1.50;;;;;;;;;;5106732;28;20727;-60
2020/12/17 11:42:05;;;;;;;4.83;1.77;;;;;;;;;;5110565;28;20621;-60
2020/12/17 11:44:31;;;;;;;2.83;1.43;;;;;;;;;;5110364;28;20197;-60
2020/12/17 11:46:57;;;;;;;2.40;1.27;;;;;;;;;;5110590;28;20182;-59
2020/12/17 11:49:23;;;;;;;2.27;1.47;;;;;;;;;;5110715;28;20186;-61
2020/12/17 11:51:52;;;;;;;2.57;1.60;;;;;;;;;;5110828;28;20250;-60
2020/12/17 11:54:19;;;;;;;2.90;2.00;;;;;;;;;;5110115;28;20232;-60
2020/12/17 11:56:46;;;;;;;2.13;1.67;;;;;;;;;;5110592;28;20166;-60
2020/12/17 11:59:12;;;;;;;2.00;1.73;;;;;;;;;;5126116;27;20209;-60
2020/12/17 12:01:41;;;;;;;3.10;1.70;;;;;;;;;;5110834;28;20200;-62
2020/12/17 12:04:07;;;;;;;3.17;1.83;;;;;;;;;;5107454;28;20251;-60
2020/12/17 12:06:34;;;;;;;1.40;1.30;;;;;;;;;;5080166;28;20179;-61
2020/12/17 12:09:00;;;;;;;1.83;1.70;;;;;;;;;;5108867;28;20244;-60
2020/12/17 12:11:26;;;;;;;2.73;1.50;;;;;;;;;;5108806;28;20681;-60
2020/12/17 12:13:52;;;;;;;2.60;1.63;;;;;;;;;;5091574;28;20207;-61
2020/12/17 12:16:18;;;;;;;2.47;1.50;;;;;;;;;;5108247;28;20180;-60
2020/12/17 12:18:45;;;;;;;1.80;1.37;;;;;;;;;;5105670;28;20194;-60
2020/12/17 12:21:11;;;;;;;2.80;1.90;;;;;;;;;;5105836;28;20179;-58
2020/12/17 12:23:37;;;;;;;4.10;1.67;;;;;;;;;;5090383;28;20187;-60
2020/12/17 12:26:04;;;;;;;2.17;1.70;;;;;;;;;;5108097;28;20244;-63
2020/12/17 12:28:30;;;;;;;2.57;1.67;;;;;;;;;;5103807;28;20755;-60
2020/12/17 12:30:56;;;;;;;2.23;1.30;;;;;;;;;;5091546;28;20238;-60
2020/12/17 12:33:22;;;;;;;6.30;1.97;;;;;;;;;;5110102;28;20194;-60
2020/12/17 12:35:48;;;;;;;2.30;1.40;;;;;;;;;;5109932;28;20182;-60
2020/12/17 12:38:14;;;;;;;4.67;2.10;;;;;;;;;;5083040;28;20179;-61
2020/12/17 12:40:40;;;;;;;1.87;1.60;;;;;;;;;;5092433;28;20313;-60
2020/12/17 12:43:06;;;;;;;2.00;1.50;;;;;;;;;;5109460;28;20178;-61
2020/12/17 12:45:32;;;;;;;5.10;2.37;;;;;;;;;;5109327;28;20645;-61
2020/12/17 12:47:58;;;;;;;6.87;1.87;;;;;;;;;;5110165;28;20170;-61
2020/12/17 12:50:24;;;;;;;2.60;1.70;;;;;;;;;;5096668;28;20180;-61
2020/12/17 12:52:50;;;;;;;4.10;1.90;;;;;;;;;;5103734;28;20172;-61
2020/12/17 12:55:16;;;;;;;2.20;1.67;;;;;;;;;;5108957;28;20300;-61
2020/12/17 12:57:42;;;;;;;3.10;1.60;;;;;;;;;;5108465;27;20567;-61
2020/12/17 13:00:08;;;;;;;3.20;1.53;;;;;;;;;;5119028;27;20211;-61
2020/12/17 13:02:34;;;;;;;4.20;2.10;;;;;;;;;;5094355;28;20561;-63
2020/12/17 13:05:00;;;;;;;2.40;1.57;;;;;;;;;;5088899;28;20212;-60
2020/12/17 13:07:26;;;;;;;4.93;1.50;;;;;;;;;;5094714;28;20630;-60
2020/12/17 13:09:52;;;;;;;2.33;1.63;;;;;;;;;;5093329;28;20184;-61
2020/12/17 13:12:18;;;;;;;3.10;1.70;;;;;;;;;;5093347;28;20179;-61
2020/12/17 13:14:44;;;;;;;4.53;1.90;;;;;;;;;;5109305;28;20187;-61
2020/12/17 13:17:10;;;;;;;3.33;1.93;;;;;;;;;;5093502;28;20225;-60
2020/12/17 13:19:36;;;;;;;2.57;1.67;;;;;;;;;;5105647;28;20214;-60
2020/12/17 13:22:02;;;;;;;2.67;1.60;;;;;;;;;;5103277;28;20184;-61
2020/12/17 13:24:28;;;;;;;1.87;1.67;;;;;;;;;;5095848;28;20630;-61
2020/12/17 13:26:54;;;;;;;4.70;1.60;;;;;;;;;;5105719;27;20915;-61
2020/12/17 13:29:20;;;;;;;3.70;1.90;;;;;;;;;;5101346;27;20184;-60
2020/12/17 13:31:46;;;;;;;2.87;1.90;;;;;;;;;;5096147;28;20206;-60
2020/12/17 13:34:13;;;;;;;3.43;2.00;;;;;;;;;;5103962;28;20258;-61
2020/12/17 13:36:43;;;;;;;7.20;2.27;;;;;;;;;;5104366;28;20247;-63
2020/12/17 13:39:09;;;;;;;2.30;1.60;;;;;;;;;;5110450;28;20569;-60
2020/12/17 13:41:35;;;;;;;4.27;2.07;;;;;;;;;;5097737;28;20261;-60
2020/12/17 13:44:01;;;;;;;2.47;1.97;;;;;;;;;;5101619;28;20198;-61
2020/12/17 13:46:28;;;;;;;4.37;1.80;;;;;;;;;;5096744;28;20577;-60
2020/12/17 13:48:54;;;;;;;7.13;2.07;;;;;;;;;;5108447;28;20523;-61
2020/12/17 13:51:21;;;;;;;3.20;1.90;;;;;;;;;;5112113;28;20622;-61
2020/12/17 13:53:49;;;;;;;3.43;1.80;;;;;;;;;;5093236;27;20184;-60
2020/12/17 13:56:24;;;;;;;1.63;1.40;;;;;;;;;;5094713;28;20622;-61
2020/12/17 13:58:50;;;;;;;3.40;1.70;;;;;;;;;;5108994;27;20229;-59
2020/12/17 14:01:16;;;;;;;3.53;1.57;;;;;;;;;;5094306;28;20182;-59
2020/12/17 14:03:42;;;;;;;5.17;1.97;;;;;;;;;;5105525;28;20215;-62
2020/12/17 14:06:08;;;;;;;2.80;1.80;;;;;;;;;;5093201;28;20191;-60
2020/12/17 14:08:34;;;;;;;3.50;1.70;;;;;;;;;;5092431;28;20183;-60
2020/12/17 14:11:00;;;;;;;2.87;1.80;;;;;;;;;;5112027;28;20183;-62
2020/12/17 14:13:26;;;;;;;2.43;1.73;;;;;;;;;;5093214;28;20194;-60
2020/12/17 14:15:52;;;;;;;4.13;1.53;;;;;;;;;;5091500;28;20180;-61
2020/12/17 14:18:18;;;;;;;5.07;2.10;;;;;;;;;;5101605;28;20179;-61
2020/12/17 14:20:44;;;;;;;2.57;1.70;;;;;;;;;;5103146;28;20622;-60
2020/12/17 14:23:10;;;;;;;2.50;1.70;;;;;;;;;;5105017;28;20747;-60
2020/12/17 14:25:36;;;;;;;1.80;1.50;;;;;;;;;;5076759;28;20183;-60
2020/12/17 14:28:02;;;;;;;2.63;1.70;;;;;;;;;;5109531;27;20285;-61
2020/12/17 14:30:28;;;;;;;2.13;1.70;;;;;;;;;;5110976;28;20203;-60
2020/12/17 14:32:54;;;;;;;3.93;1.70;;;;;;;;;;5104936;28;20178;-61
2020/12/17 14:35:20;;;;;;;4.33;1.60;;;;;;;;;;5091723;28;20180;-62
2020/12/17 14:37:46;;;;;;;3.13;1.80;;;;;;;;;;5109570;28;20206;-59
2020/12/17 14:40:12;;;;;;;2.60;1.70;;;;;;;;;;5095515;28;20689;-61
2020/12/17 14:42:38;;;;;;;4.67;1.80;;;;;;;;;;5098494;28;20175;-61